createdAt,value
2018-08-08T00:00:28.323Z,13.00
2018-08-08T00:02:57.270Z,13.23
2018-08-08T00:05:25.944Z,13.30
2018-08-08T00:07:54.662Z,13.57
2018-08-08T00:10:23.354Z,12.90
2018-08-08T00:12:51.991Z,12.87
2018-08-08T00:15:20.623Z,13.53
2018-08-08T00:17:49.299Z,13.63
2018-08-08T00:20:18.002Z,13.40
2018-08-08T00:22:46.653Z,13.27
2018-08-08T00:25:15.913Z,13.50
2018-08-08T00:27:44.868Z,13.40
2018-08-08T00:30:14.671Z,13.17
2018-08-08T00:32:43.719Z,12.90
2018-08-08T00:35:12.350Z,12.90
2018-08-08T00:37:41.064Z,14.07
2018-08-08T00:40:12.235Z,14.23
2018-08-08T00:42:41.343Z,13.43
2018-08-08T00:45:12.343Z,14.40
2018-08-08T00:47:41.826Z,14.80
2018-08-08T00:50:12.011Z,14.13
2018-08-08T00:52:41.254Z,13.50
2018-08-08T00:55:10.377Z,13.60
2018-08-08T00:57:39.556Z,13.80
2018-08-08T01:00:10.309Z,14.13
2018-08-08T01:02:39.016Z,14.10
2018-08-08T01:05:09.915Z,14.37
2018-08-08T01:07:38.698Z,13.40
2018-08-08T01:10:08.094Z,13.67
2018-08-08T01:12:36.767Z,13.60
2018-08-08T01:15:07.273Z,14.43
2018-08-08T01:17:36.119Z,15.23
2018-08-08T01:20:06.206Z,14.93
2018-08-08T01:22:34.967Z,15.03
2018-08-08T01:25:03.730Z,14.63
2018-08-08T01:27:32.370Z,15.80
2018-08-08T01:30:01.016Z,15.03
2018-08-08T01:32:29.655Z,15.27
2018-08-08T01:34:58.327Z,16.90
2018-08-08T01:37:26.919Z,17.93
2018-08-08T01:39:55.558Z,19.43
2018-08-08T01:42:24.198Z,18.67
2018-08-08T01:44:52.822Z,18.83
2018-08-08T01:47:21.462Z,19.47
2018-08-08T01:49:50.142Z,19.57
2018-08-08T01:52:18.766Z,20.00
2018-08-08T01:54:47.394Z,21.27
2018-08-08T01:57:16.011Z,19.87
2018-08-08T01:59:44.624Z,21.40
2018-08-08T02:02:13.259Z,21.50
2018-08-08T02:04:41.863Z,21.03
2018-08-08T02:07:10.544Z,20.50
2018-08-08T02:09:39.207Z,19.63
2018-08-08T02:12:07.991Z,18.50
2018-08-08T02:14:36.646Z,18.87
2018-08-08T02:17:05.315Z,19.03
2018-08-08T02:19:33.926Z,18.90
2018-08-08T02:22:02.578Z,20.00
2018-08-08T02:24:31.236Z,21.30
2018-08-08T02:26:59.863Z,20.80
2018-08-08T02:29:28.534Z,20.47
2018-08-08T02:31:57.159Z,20.77
2018-08-08T02:34:25.787Z,20.80
2018-08-08T02:36:54.420Z,21.17
2018-08-08T02:39:23.090Z,21.00
2018-08-08T02:41:51.751Z,20.47
2018-08-08T02:44:20.396Z,21.93
2018-08-08T02:46:49.006Z,21.63
2018-08-08T02:49:17.658Z,20.50
2018-08-08T02:51:46.274Z,20.20
2018-08-08T02:54:14.958Z,20.10
2018-08-08T02:56:43.605Z,21.10
2018-08-08T02:59:12.319Z,19.77
2018-08-08T03:01:40.950Z,20.20
2018-08-08T03:04:09.663Z,20.80
2018-08-08T03:06:38.300Z,20.40
2018-08-08T03:09:09.634Z,20.50
2018-08-08T03:11:38.304Z,19.90
2018-08-08T03:14:07.431Z,19.20
2018-08-08T03:16:36.292Z,20.83
2018-08-08T03:19:04.945Z,20.67
2018-08-08T03:21:33.614Z,20.27
2018-08-08T03:24:02.278Z,20.33
2018-08-08T03:26:30.986Z,21.77
2018-08-08T03:28:59.589Z,21.53
2018-08-08T03:31:28.203Z,21.80
2018-08-08T03:33:56.848Z,21.83
2018-08-08T03:36:25.515Z,21.33
2018-08-08T03:38:54.171Z,19.83
2018-08-08T03:41:22.851Z,20.67
2018-08-08T03:43:51.471Z,21.57
2018-08-08T03:46:20.206Z,21.33
2018-08-08T03:48:48.829Z,20.80
2018-08-08T03:51:17.445Z,20.73
2018-08-08T03:53:46.160Z,19.17
2018-08-08T03:56:14.838Z,19.60
2018-08-08T03:58:43.447Z,21.73
2018-08-08T04:01:12.055Z,19.17
2018-08-08T04:03:40.766Z,19.17
2018-08-08T04:06:09.373Z,19.83
2018-08-08T04:08:38.010Z,19.77
2018-08-08T04:11:06.621Z,21.23
2018-08-08T04:13:35.296Z,20.93
2018-08-08T04:16:03.914Z,19.93
2018-08-08T04:18:32.540Z,20.77
2018-08-08T04:21:01.240Z,19.30
2018-08-08T04:23:29.887Z,19.30
2018-08-08T04:25:58.554Z,19.67
2018-08-08T04:28:27.182Z,19.57
2018-08-08T04:30:55.876Z,20.60
2018-08-08T04:33:24.499Z,20.73
2018-08-08T04:35:53.412Z,20.43
2018-08-08T04:38:22.108Z,20.03
2018-08-08T04:40:50.856Z,20.20
2018-08-08T04:43:19.523Z,19.43
2018-08-08T04:45:48.215Z,19.37
2018-08-08T04:48:16.887Z,21.13
2018-08-08T04:50:45.540Z,21.83
2018-08-08T04:53:14.178Z,21.63
2018-08-08T04:55:42.887Z,22.10
2018-08-08T04:58:11.575Z,21.77
2018-08-08T05:00:40.250Z,21.90
2018-08-08T05:03:08.901Z,20.70
2018-08-08T05:05:37.563Z,22.33
2018-08-08T05:08:06.265Z,21.33
2018-08-08T05:10:34.975Z,20.77
2018-08-08T05:13:03.633Z,21.10
2018-08-08T05:15:32.280Z,21.63
2018-08-08T05:18:01.041Z,21.70
2018-08-08T05:20:29.739Z,21.43
2018-08-08T05:22:58.372Z,22.50
2018-08-08T05:25:27.108Z,21.07
2018-08-08T05:27:55.760Z,23.17
2018-08-08T05:30:24.483Z,22.57
2018-08-08T05:32:53.221Z,21.90
2018-08-08T05:35:21.954Z,22.43
2018-08-08T05:37:50.650Z,20.63
2018-08-08T05:40:21.630Z,21.57
2018-08-08T05:42:52.398Z,22.37
2018-08-08T05:45:21.705Z,21.50
2018-08-08T05:47:52.724Z,22.70
2018-08-08T05:50:21.466Z,21.85
2018-08-08T05:52:50.237Z,23.38
2018-08-08T05:55:20.011Z,21.42
2018-08-08T05:57:48.814Z,20.45
2018-08-08T06:00:23.195Z,21.35
2018-08-08T06:02:52.013Z,21.68
2018-08-08T06:05:20.711Z,22.73
2018-08-08T06:07:49.422Z,21.02
2018-08-08T06:10:18.123Z,21.75
2018-08-08T06:12:46.799Z,22.87
2018-08-08T06:15:16.635Z,23.07
2018-08-08T06:17:45.427Z,23.55
2018-08-08T06:20:17.307Z,21.00
2018-08-08T06:22:46.793Z,22.65
2018-08-08T06:25:15.618Z,23.27
2018-08-08T06:27:44.714Z,23.27
2018-08-08T06:30:17.628Z,26.52
2018-08-08T06:32:46.414Z,24.70
2018-08-08T06:35:16.271Z,25.32
2018-08-08T06:37:44.922Z,22.82
2018-08-08T06:40:14.602Z,23.42
2018-08-08T06:42:43.879Z,23.47
2018-08-08T06:45:14.132Z,23.45
2018-08-08T06:47:42.984Z,23.20
2018-08-08T06:50:12.536Z,22.37
2018-08-08T06:52:41.508Z,21.05
2018-08-08T06:55:12.920Z,21.10
2018-08-08T06:57:41.765Z,21.30
2018-08-08T07:00:18.776Z,22.55
2018-08-08T07:02:47.524Z,22.75
2018-08-08T07:05:17.217Z,23.18
2018-08-08T07:07:46.269Z,22.60
2018-08-08T07:10:14.976Z,22.35
2018-08-08T07:12:43.717Z,21.30
2018-08-08T07:15:13.995Z,22.58
2018-08-08T07:17:42.734Z,21.65
2018-08-08T07:20:12.624Z,20.08
2018-08-08T07:22:41.365Z,17.35
2018-08-08T07:25:11.983Z,18.05
2018-08-08T07:27:40.692Z,21.30
2018-08-08T07:30:12.512Z,19.92
2018-08-08T07:32:41.262Z,19.02
2018-08-08T07:35:10.721Z,19.02
2018-08-08T07:37:39.795Z,18.20
2018-08-08T07:40:10.301Z,22.75
2018-08-08T07:42:39.707Z,18.37
2018-08-08T07:45:10.612Z,19.52
2018-08-08T07:47:39.343Z,16.48
2018-08-08T07:50:09.264Z,24.37
2018-08-08T07:52:38.016Z,16.97
2018-08-08T07:55:07.544Z,23.22
2018-08-08T07:57:36.173Z,17.65
2018-08-08T08:00:09.152Z,19.90
2018-08-08T08:02:37.932Z,17.15
2018-08-08T08:05:06.678Z,15.98
2018-08-08T08:07:35.359Z,18.23
2018-08-08T08:10:04.450Z,13.13
2018-08-08T08:12:33.116Z,15.55
2018-08-08T08:15:01.787Z,17.15
2018-08-08T08:17:30.658Z,17.65
2018-08-08T08:19:59.292Z,15.43
2018-08-08T08:22:27.980Z,15.68
2018-08-08T08:24:56.763Z,16.87
2018-08-08T08:27:25.822Z,16.65
2018-08-08T08:29:54.532Z,18.10
2018-08-08T08:32:23.152Z,15.10
2018-08-08T08:34:51.798Z,15.32
2018-08-08T08:37:20.534Z,14.23
2018-08-08T08:39:49.458Z,14.15
2018-08-08T08:42:18.151Z,13.38
2018-08-08T08:44:46.911Z,13.60
2018-08-08T08:47:15.515Z,13.68
2018-08-08T08:49:44.434Z,13.03
2018-08-08T08:52:13.158Z,12.55
2018-08-08T08:54:41.840Z,12.43
2018-08-08T08:57:10.443Z,12.40
2018-08-08T08:59:39.205Z,13.55
2018-08-08T09:02:07.834Z,12.23
2018-08-08T09:04:36.511Z,13.60
2018-08-08T09:07:05.262Z,14.13
2018-08-08T09:09:33.921Z,12.90
2018-08-08T09:12:02.586Z,12.60
2018-08-08T09:14:31.235Z,13.00
2018-08-08T09:16:59.906Z,12.03
2018-08-08T09:19:28.531Z,13.32
2018-08-08T09:21:57.236Z,14.03
2018-08-08T09:24:25.896Z,12.63
2018-08-08T09:26:54.595Z,13.05
2018-08-08T09:29:23.295Z,12.98
2018-08-08T09:31:51.950Z,14.05
2018-08-08T09:34:20.666Z,13.70
2018-08-08T09:36:49.714Z,12.70
2018-08-08T09:39:18.376Z,13.60
2018-08-08T09:41:47.068Z,13.32
2018-08-08T09:44:15.754Z,12.75
2018-08-08T09:46:44.417Z,13.28
2018-08-08T09:49:13.042Z,13.20
2018-08-08T09:51:41.775Z,13.93
2018-08-08T09:54:10.463Z,13.75
2018-08-08T09:56:39.123Z,13.80
2018-08-08T09:59:07.975Z,13.50
2018-08-08T10:01:41.764Z,13.35
2018-08-08T10:04:15.656Z,13.18
2018-08-08T10:06:44.332Z,13.00
2018-08-08T10:09:13.129Z,12.25
2018-08-08T10:11:41.988Z,11.78
2018-08-08T10:14:10.782Z,12.28
2018-08-08T10:16:39.498Z,12.10
2018-08-08T10:19:08.243Z,12.00
2018-08-08T10:21:36.896Z,12.23
2018-08-08T10:24:05.617Z,12.82
2018-08-08T10:26:34.308Z,12.50
2018-08-08T10:29:02.920Z,12.93
2018-08-08T10:31:31.514Z,13.25
2018-08-08T10:34:00.191Z,12.93
2018-08-08T10:36:28.942Z,12.53
2018-08-08T10:38:57.562Z,13.35
2018-08-08T10:41:26.226Z,14.00
2018-08-08T10:43:55.648Z,12.70
2018-08-08T10:46:24.251Z,11.10
2018-08-08T10:48:52.905Z,11.68
2018-08-08T10:51:21.544Z,12.58
2018-08-08T10:53:50.175Z,11.48
2018-08-08T10:56:18.837Z,12.07
2018-08-08T10:58:47.423Z,11.68
2018-08-08T11:01:16.290Z,10.98
2018-08-08T11:03:44.948Z,11.55
2018-08-08T11:06:13.645Z,11.28
2018-08-08T11:08:42.394Z,11.55
2018-08-08T11:11:10.995Z,12.82
2018-08-08T11:13:39.701Z,13.53
2018-08-08T11:16:08.416Z,13.22
2018-08-08T11:18:37.077Z,12.85
2018-08-08T11:21:05.728Z,13.85
2018-08-08T11:23:34.354Z,14.40
2018-08-08T11:26:03.024Z,13.85
2018-08-08T11:28:31.695Z,13.38
2018-08-08T11:31:00.461Z,13.05
2018-08-08T11:33:29.081Z,13.18
2018-08-08T11:35:57.751Z,12.78
2018-08-08T11:38:26.453Z,16.07
2018-08-08T11:40:55.083Z,14.15
2018-08-08T11:43:23.744Z,13.60
2018-08-08T11:45:52.409Z,13.83
2018-08-08T11:48:21.050Z,12.82
2018-08-08T11:50:49.655Z,12.60
2018-08-08T11:53:18.285Z,13.03
2018-08-08T11:55:46.827Z,13.32
2018-08-08T11:58:15.449Z,12.20
2018-08-08T12:00:44.100Z,12.35
2018-08-08T12:03:12.691Z,12.43
2018-08-08T12:05:41.351Z,12.70
2018-08-08T12:08:09.959Z,12.45
2018-08-08T12:10:38.552Z,12.00
2018-08-08T12:13:07.242Z,12.58
2018-08-08T12:15:35.897Z,12.00
2018-08-08T12:18:04.626Z,12.33
2018-08-08T12:20:33.281Z,11.88
2018-08-08T12:23:01.960Z,12.47
2018-08-08T12:25:30.671Z,11.22
2018-08-08T12:27:59.313Z,11.90
2018-08-08T12:30:27.942Z,11.85
2018-08-08T12:32:56.576Z,12.68
2018-08-08T12:35:25.373Z,11.53
2018-08-08T12:37:53.973Z,12.18
2018-08-08T12:40:22.654Z,11.88
2018-08-08T12:42:51.355Z,11.22
2018-08-08T12:45:20.030Z,12.18
2018-08-08T12:47:48.683Z,11.53
2018-08-08T12:50:17.313Z,11.55
2018-08-08T12:52:45.946Z,11.05
2018-08-08T12:55:14.576Z,11.50
2018-08-08T12:57:43.224Z,11.93
2018-08-08T13:00:13.268Z,12.33
2018-08-08T13:02:41.921Z,11.30
2018-08-08T13:05:10.679Z,11.18
2018-08-08T13:07:39.377Z,11.70
2018-08-08T13:10:08.135Z,11.33
2018-08-08T13:12:36.775Z,11.48
2018-08-08T13:15:06.423Z,11.10
2018-08-08T13:17:35.052Z,11.97
2018-08-08T13:20:03.861Z,11.75
2018-08-08T13:22:32.505Z,12.25
2018-08-08T13:25:01.125Z,10.43
2018-08-08T13:27:29.839Z,11.80
2018-08-08T13:29:58.440Z,12.60
2018-08-08T13:32:27.271Z,13.40
2018-08-08T13:34:55.911Z,10.72
2018-08-08T13:37:24.579Z,11.53
2018-08-08T13:39:53.207Z,11.00
2018-08-08T13:42:21.952Z,11.33
2018-08-08T13:44:50.588Z,11.12
2018-08-08T13:47:19.289Z,10.75
2018-08-08T13:49:47.929Z,11.40
2018-08-08T13:52:16.602Z,11.48
2018-08-08T13:54:45.179Z,11.45
2018-08-08T13:57:13.806Z,10.88
2018-08-08T13:59:42.518Z,11.20
2018-08-08T14:02:11.187Z,11.60
2018-08-08T14:04:39.867Z,10.95
2018-08-08T14:07:08.768Z,11.15
2018-08-08T14:09:37.425Z,11.28
2018-08-08T14:12:06.157Z,11.70
2018-08-08T14:14:35.163Z,11.65
2018-08-08T14:17:04.300Z,11.40
2018-08-08T14:19:32.890Z,11.30
2018-08-08T14:22:01.527Z,11.10
2018-08-08T14:24:30.163Z,10.78
2018-08-08T14:26:58.875Z,11.10
2018-08-08T14:29:27.545Z,10.45
2018-08-08T14:31:56.195Z,10.03
2018-08-08T14:34:24.814Z,10.88
2018-08-08T14:36:53.454Z,10.80
2018-08-08T14:39:22.106Z,10.45
2018-08-08T14:41:50.801Z,9.75
2018-08-08T14:44:19.495Z,10.55
2018-08-08T14:46:48.468Z,11.35
2018-08-08T14:49:17.120Z,10.78
2018-08-08T14:51:46.005Z,11.00
2018-08-08T14:54:14.616Z,10.60
2018-08-08T14:56:43.282Z,11.08
2018-08-08T14:59:12.064Z,10.98
2018-08-08T15:01:40.669Z,11.50
2018-08-08T15:04:09.316Z,10.08
2018-08-08T15:06:38.490Z,10.40
2018-08-08T15:09:10.266Z,9.53
2018-08-08T15:11:38.965Z,10.18
2018-08-08T15:16:42.742Z,11.08
2018-08-08T15:19:11.503Z,10.63
2018-08-08T15:21:40.138Z,9.80
2018-08-08T15:24:08.956Z,10.68
2018-08-08T15:26:37.568Z,9.90
2018-08-08T15:29:06.215Z,9.15
2018-08-08T15:31:35.101Z,9.65
2018-08-08T15:34:03.826Z,9.78
2018-08-08T15:36:32.663Z,10.85
2018-08-08T15:39:01.266Z,9.23
2018-08-08T15:41:29.963Z,10.23
2018-08-08T15:43:58.899Z,10.50
2018-08-08T15:46:27.627Z,9.68
2018-08-08T15:48:56.255Z,9.75
2018-08-08T15:51:24.964Z,9.48
2018-08-08T15:53:53.865Z,9.70
2018-08-08T15:56:23.034Z,11.35
2018-08-08T15:58:51.991Z,9.40
2018-08-08T16:01:20.583Z,9.85
2018-08-08T16:03:49.250Z,9.30
2018-08-08T16:06:17.881Z,9.90
2018-08-08T16:08:46.475Z,10.43
2018-08-08T16:11:15.123Z,10.48
2018-08-08T16:13:44.874Z,10.20
2018-08-08T16:16:13.564Z,9.43
2018-08-08T16:18:42.258Z,8.43
2018-08-08T16:21:11.222Z,9.78
2018-08-08T16:23:40.181Z,10.90
2018-08-08T16:26:08.891Z,10.70
2018-08-08T16:28:37.517Z,11.18
2018-08-08T16:31:06.192Z,10.83
2018-08-08T16:33:35.119Z,10.30
2018-08-08T16:36:04.111Z,10.03
2018-08-08T16:38:32.759Z,9.67
2018-08-08T16:41:01.405Z,9.53
2018-08-08T16:43:30.072Z,11.30
2018-08-08T16:45:58.771Z,9.17
2018-08-08T16:48:27.681Z,9.37
2018-08-08T16:50:56.607Z,9.93
2018-08-08T16:53:28.173Z,9.20
2018-08-08T16:55:56.859Z,9.73
2018-08-08T16:58:25.518Z,8.90
2018-08-08T17:00:54.147Z,9.23
2018-08-08T17:03:22.780Z,9.00
2018-08-08T17:05:51.678Z,9.27
2018-08-08T17:08:20.328Z,9.50
2018-08-08T17:10:49.496Z,9.30
2018-08-08T17:13:18.164Z,9.33
2018-08-08T17:15:47.102Z,9.00
2018-08-08T17:18:15.770Z,9.93
2018-08-08T17:20:44.403Z,10.70
2018-08-08T17:23:13.062Z,10.03
2018-08-08T17:25:41.710Z,9.03
2018-08-08T17:28:10.411Z,9.33
2018-08-08T17:30:39.083Z,10.10
2018-08-08T17:33:07.986Z,10.30
2018-08-08T17:35:36.656Z,11.80
2018-08-08T17:38:05.634Z,11.13
2018-08-08T17:40:34.239Z,10.57
2018-08-08T17:43:02.958Z,10.73
2018-08-08T17:45:31.597Z,10.97
2018-08-08T17:48:00.774Z,10.37
2018-08-08T17:50:29.786Z,9.60
2018-08-08T17:52:58.422Z,8.90
2018-08-08T17:55:27.426Z,10.00
2018-08-08T17:57:56.084Z,10.67
2018-08-08T18:00:31.230Z,10.50
2018-08-08T18:02:59.849Z,11.23
2018-08-08T18:05:28.774Z,9.67
2018-08-08T18:07:57.490Z,10.63
2018-08-08T18:10:26.463Z,11.37
2018-08-08T18:12:55.666Z,11.03
2018-08-08T18:15:24.266Z,10.90
2018-08-08T18:17:52.867Z,10.47
2018-08-08T18:20:22.446Z,11.17
2018-08-08T18:22:51.064Z,10.50
2018-08-08T18:25:19.772Z,10.83
2018-08-08T18:27:48.429Z,11.07
2018-08-08T18:30:17.145Z,11.07
2018-08-08T18:32:45.795Z,12.43
2018-08-08T18:35:14.453Z,12.10
2018-08-08T18:37:43.192Z,12.17
2018-08-08T18:40:11.846Z,11.97
2018-08-08T18:42:40.489Z,12.13
2018-08-08T18:45:09.157Z,12.20
2018-08-08T18:47:37.802Z,11.87
2018-08-08T18:50:06.498Z,10.70
2018-08-08T18:52:35.157Z,11.20
2018-08-08T18:55:03.815Z,10.77
2018-08-08T18:57:32.509Z,12.97
2018-08-08T19:00:01.142Z,13.17
2018-08-08T19:02:29.831Z,11.67
2018-08-08T19:04:58.503Z,10.80
2018-08-08T19:07:27.140Z,10.50
2018-08-08T19:09:55.739Z,11.20
2018-08-08T19:12:24.410Z,11.03
2018-08-08T19:14:53.055Z,10.87
2018-08-08T19:17:21.732Z,11.27
2018-08-08T19:19:50.390Z,11.40
2018-08-08T19:22:19.023Z,10.90
2018-08-08T19:24:47.740Z,11.07
2018-08-08T19:27:16.450Z,11.63
2018-08-08T19:29:45.218Z,13.10
2018-08-08T19:32:13.861Z,12.00
2018-08-08T19:34:42.572Z,11.83
2018-08-08T19:37:11.245Z,11.90
2018-08-08T19:39:39.844Z,12.00
2018-08-08T19:42:08.751Z,11.80
2018-08-08T19:44:37.386Z,11.37
2018-08-08T19:47:06.349Z,11.63
2018-08-08T19:49:34.998Z,10.47
2018-08-08T19:52:03.637Z,11.80
2018-08-08T19:54:32.379Z,11.17
2018-08-08T19:57:00.986Z,10.20
2018-08-08T19:59:29.663Z,10.47
2018-08-08T20:01:58.374Z,11.00
2018-08-08T20:04:27.048Z,11.50
2018-08-08T20:06:55.679Z,11.60
2018-08-08T20:09:24.326Z,11.03
2018-08-08T20:11:52.974Z,11.73
2018-08-08T20:14:21.564Z,10.90
2018-08-08T20:16:50.195Z,11.37
2018-08-08T20:19:18.848Z,12.23
2018-08-08T20:21:47.521Z,13.27
2018-08-08T20:24:16.130Z,12.57
2018-08-08T20:26:44.769Z,11.77
2018-08-08T20:29:13.408Z,11.83
2018-08-08T20:31:42.043Z,11.97
2018-08-08T20:34:10.713Z,11.27
2018-08-08T20:36:39.350Z,12.33
2018-08-08T20:39:09.054Z,11.87
2018-08-08T20:41:37.970Z,13.10
2018-08-08T20:44:06.982Z,12.23
2018-08-08T20:46:35.603Z,13.20
2018-08-08T20:49:04.229Z,14.07
2018-08-08T20:51:32.830Z,13.67
2018-08-08T20:54:01.442Z,11.50
2018-08-08T20:56:30.070Z,12.43
2018-08-08T20:58:58.682Z,13.63
2018-08-08T21:01:27.286Z,12.03
2018-08-08T21:03:56.197Z,12.67
2018-08-08T21:06:24.823Z,11.73
2018-08-08T21:08:53.446Z,12.27
2018-08-08T21:11:22.094Z,11.53
2018-08-08T21:13:50.766Z,11.63
2018-08-08T21:16:19.383Z,11.67
2018-08-08T21:18:48.075Z,12.10
2018-08-08T21:21:16.766Z,12.30
2018-08-08T21:23:45.472Z,12.13
2018-08-08T21:26:14.279Z,12.67
2018-08-08T21:28:42.995Z,12.47
2018-08-08T21:31:11.751Z,11.83
2018-08-08T21:33:40.500Z,12.57
2018-08-08T21:36:09.433Z,12.00
2018-08-08T21:38:38.529Z,11.90
2018-08-08T21:41:07.463Z,12.00
2018-08-08T21:43:36.130Z,11.43
2018-08-08T21:46:04.828Z,12.90
2018-08-08T21:48:33.810Z,12.37
2018-08-08T21:51:02.540Z,12.87
2018-08-08T21:53:42.446Z,15.60
2018-08-08T21:56:22.095Z,14.10
2018-08-08T21:59:01.856Z,14.70
2018-08-08T22:01:41.492Z,14.33
2018-08-08T22:04:21.293Z,14.43
2018-08-08T22:07:01.109Z,13.83
2018-08-08T22:09:40.831Z,14.33
2018-08-08T22:12:20.214Z,13.40
2018-08-08T22:15:07.678Z,15.67
2018-08-08T22:17:47.248Z,13.67
2018-08-08T22:20:15.993Z,12.50
2018-08-08T22:22:44.681Z,13.87
2018-08-08T22:25:14.436Z,12.43
2018-08-08T22:27:43.071Z,11.80
2018-08-08T22:30:11.777Z,12.07
2018-08-08T22:32:40.403Z,12.20
2018-08-08T22:35:09.070Z,13.07
2018-08-08T22:37:37.700Z,12.97
2018-08-08T22:40:06.459Z,12.10
2018-08-08T22:42:35.090Z,12.30
2018-08-08T22:45:03.836Z,12.17
2018-08-08T22:47:32.492Z,12.57
2018-08-08T22:50:01.184Z,12.50
2018-08-08T22:52:29.888Z,12.10
2018-08-08T22:54:58.516Z,12.20
2018-08-08T22:57:27.190Z,12.07
2018-08-08T22:59:55.812Z,12.40
2018-08-08T23:02:24.464Z,11.30
2018-08-08T23:04:53.138Z,11.33
2018-08-08T23:07:21.779Z,12.53
2018-08-08T23:09:50.755Z,11.83
2018-08-08T23:12:19.366Z,11.70
2018-08-08T23:14:47.993Z,11.70
2018-08-08T23:17:16.603Z,11.87
2018-08-08T23:19:45.248Z,10.90
2018-08-08T23:22:23.788Z,11.80
2018-08-08T23:24:52.443Z,10.83
2018-08-08T23:27:21.052Z,11.03
2018-08-08T23:29:49.736Z,11.57
2018-08-08T23:32:18.347Z,10.77
2018-08-08T23:34:47.386Z,10.83
2018-08-08T23:37:16.083Z,11.43
2018-08-08T23:39:44.698Z,11.07
2018-08-08T23:42:13.385Z,10.90
2018-08-08T23:44:41.999Z,10.70
2018-08-08T23:47:10.618Z,11.50
2018-08-08T23:49:39.214Z,10.60
2018-08-08T23:52:07.884Z,10.53
2018-08-08T23:54:36.511Z,11.13
2018-08-08T23:57:06.120Z,11.07
2018-08-08T23:59:34.775Z,10.70
